createdAt,value
2022-09-26T00:01:44.200Z,99812.69
2022-09-26T00:06:46.859Z,99795.22
2022-09-26T00:11:49.577Z,99803.13
2022-09-26T00:16:51.988Z,99793.78
2022-09-26T00:21:54.479Z,99781.72
2022-09-26T00:26:56.830Z,99782.47
2022-09-26T00:31:59.272Z,99775.38
2022-09-26T00:37:01.909Z,99769.59
2022-09-26T00:42:04.485Z,99769.81
2022-09-26T00:47:08.550Z,99773.03
2022-09-26T00:52:13.070Z,99768.09
2022-09-26T00:57:41.098Z,99744.22
2022-09-26T01:02:43.831Z,99758.97
2022-09-26T01:07:46.816Z,99748.44
2022-09-26T01:12:49.146Z,99748.31
2022-09-26T01:17:51.754Z,99736.75
2022-09-26T01:23:31.914Z,99747.94
2022-09-26T01:29:04.741Z,99744.06
2022-09-26T01:34:21.061Z,99730.59
2022-09-26T01:39:43.806Z,99729.75
2022-09-26T01:44:52.505Z,99727.66
2022-09-26T01:50:04.126Z,99721.53
2022-09-26T01:55:17.617Z,99720.28
2022-09-26T02:00:20.667Z,99718.78
2022-09-26T02:05:33.442Z,99707.34
2022-09-26T02:10:39.276Z,99713.69
2022-09-26T02:15:48.345Z,99711.78
2022-09-26T02:20:57.011Z,99707.59
2022-09-26T02:26:00.169Z,99707.41
2022-09-26T02:31:04.479Z,99686.34
2022-09-26T02:36:08.490Z,99694.13
2022-09-26T02:41:30.284Z,99690.88
2022-09-26T02:46:53.751Z,99691.50
2022-09-26T02:52:14.418Z,99677.13
2022-09-26T02:57:55.638Z,99668.84
2022-09-26T03:03:19.982Z,99675.94
2022-09-26T03:08:26.539Z,99665.00
2022-09-26T03:13:34.759Z,99659.69
2022-09-26T03:18:43.030Z,99653.38
2022-09-26T03:23:45.993Z,99647.59
2022-09-26T03:28:49.065Z,99644.81
2022-09-26T03:33:52.939Z,99641.91
2022-09-26T03:38:55.335Z,99637.34
2022-09-26T03:44:12.103Z,99625.41
2022-09-26T03:49:35.327Z,99625.88
2022-09-26T03:54:37.943Z,99623.88
2022-09-26T03:59:40.498Z,99609.41
2022-09-26T04:04:43.085Z,99617.41
2022-09-26T04:09:46.152Z,99610.78
2022-09-26T04:14:48.521Z,99611.47
2022-09-26T04:19:51.718Z,99613.25
2022-09-26T04:24:54.711Z,99596.66
2022-09-26T04:29:57.852Z,99614.59
2022-09-26T04:35:11.419Z,99613.00
2022-09-26T04:40:13.958Z,99609.06
2022-09-26T04:45:26.710Z,99601.81
2022-09-26T04:50:29.226Z,99614.03
2022-09-26T04:55:49.570Z,99607.16
2022-09-26T05:00:52.608Z,99604.66
2022-09-26T05:06:10.117Z,99607.44
2022-09-26T05:11:13.146Z,99602.16
2022-09-26T05:16:16.197Z,99588.75
2022-09-26T05:21:20.000Z,99589.75
2022-09-26T05:26:33.278Z,99596.72
2022-09-26T05:31:38.098Z,99592.88
2022-09-26T05:36:42.833Z,99583.91
2022-09-26T05:41:45.185Z,99596.59
2022-09-26T05:46:47.751Z,99597.59
2022-09-26T05:51:50.323Z,99587.09
2022-09-26T05:56:53.847Z,99587.72
2022-09-26T06:02:18.606Z,99585.09
2022-09-26T06:07:37.643Z,99578.25
2022-09-26T06:12:48.815Z,99582.38
2022-09-26T06:18:04.588Z,99582.25
2022-09-26T06:23:07.339Z,99573.66
2022-09-26T06:28:13.582Z,99578.41
2022-09-26T06:33:16.118Z,99571.03
2022-09-26T06:38:47.648Z,99572.13
2022-09-26T06:43:53.219Z,99558.03
2022-09-26T06:49:22.131Z,99568.34
2022-09-26T06:54:45.883Z,99547.69
2022-09-26T06:59:49.071Z,99557.75
2022-09-26T07:05:06.090Z,99560.09
2022-09-26T07:10:12.822Z,99568.66
2022-09-26T07:15:21.025Z,99550.50
2022-09-26T07:20:24.127Z,99566.72
2022-09-26T07:25:49.148Z,99577.28
2022-09-26T07:30:51.740Z,99572.72
2022-09-26T07:36:10.871Z,99580.50
2022-09-26T07:41:14.097Z,99573.63
2022-09-26T07:46:35.375Z,99569.66
2022-09-26T07:51:39.215Z,99581.69
2022-09-26T07:56:46.439Z,99569.13
2022-09-26T08:02:24.136Z,99588.81
2022-09-26T08:07:26.961Z,99584.00
2022-09-26T08:12:39.971Z,99571.56
2022-09-26T08:18:08.635Z,99581.22
2022-09-26T08:23:11.659Z,99586.88
2022-09-26T08:28:14.688Z,99579.72
2022-09-26T08:33:19.129Z,99582.25
2022-09-26T08:38:23.204Z,99574.88
2022-09-26T08:44:11.248Z,99569.47
2022-09-26T08:49:31.499Z,99563.72
2022-09-26T08:54:43.888Z,99550.38
2022-09-26T08:59:47.988Z,99562.81
2022-09-26T09:04:57.608Z,99556.13
2022-09-26T09:10:04.957Z,99549.97
2022-09-26T09:15:29.036Z,99549.72
2022-09-26T09:21:39.372Z,99545.34
2022-09-26T09:27:54.031Z,99546.97
2022-09-26T09:33:02.029Z,99548.13
2022-09-26T09:38:19.815Z,99541.06
2022-09-26T09:43:47.591Z,99550.59
2022-09-26T09:48:55.910Z,99548.66
2022-09-26T09:54:04.071Z,99553.50
2022-09-26T09:59:51.794Z,99542.63
2022-09-26T10:05:16.885Z,99547.31
2022-09-26T10:10:22.986Z,99537.00
2022-09-26T10:16:06.571Z,99533.88
2022-09-26T10:21:34.755Z,99540.16
2022-09-26T10:26:39.388Z,99528.84
2022-09-26T10:31:43.598Z,99530.25
2022-09-26T10:36:53.943Z,99530.19
2022-09-26T10:41:58.612Z,99522.06
2022-09-26T10:47:09.003Z,99511.94
2022-09-26T10:52:20.112Z,99519.13
2022-09-26T10:57:28.335Z,99502.09
2022-09-26T11:02:32.520Z,99505.44
2022-09-26T11:07:39.362Z,99512.44
2022-09-26T11:13:17.150Z,99513.38
2022-09-26T11:18:27.308Z,99510.38
2022-09-26T11:23:35.720Z,99507.03
2022-09-26T11:28:40.932Z,99505.59
2022-09-26T11:34:04.855Z,99506.50
2022-09-26T11:39:41.037Z,99498.16
2022-09-26T11:44:59.022Z,99486.72
2022-09-26T11:50:39.812Z,99490.66
2022-09-26T11:55:56.215Z,99484.59
2022-09-26T12:01:19.969Z,99478.88
2022-09-26T12:06:35.175Z,99480.94
2022-09-26T12:11:45.943Z,99480.38
2022-09-26T12:17:19.717Z,99475.66
2022-09-26T12:22:43.194Z,99473.81
2022-09-26T12:28:09.791Z,99474.56
2022-09-26T12:33:24.301Z,99467.50
2022-09-26T12:38:56.661Z,99466.94
2022-09-26T12:44:09.022Z,99464.00
2022-09-26T12:49:21.470Z,99459.22
2022-09-26T12:54:39.113Z,99462.00
2022-09-26T12:59:41.417Z,99456.53
2022-09-26T13:04:51.691Z,99457.78
2022-09-26T13:10:12.051Z,99451.91
2022-09-26T13:15:30.521Z,99447.66
2022-09-26T13:20:50.063Z,99445.59
2022-09-26T13:26:04.699Z,99453.25
2022-09-26T13:31:19.556Z,99446.63
2022-09-26T13:36:23.017Z,99430.00
2022-09-26T13:41:43.543Z,99441.81
2022-09-26T13:47:27.152Z,99442.44
2022-09-26T13:53:06.909Z,99435.72
2022-09-26T13:58:26.614Z,99430.44
2022-09-26T14:03:29.210Z,99421.84
2022-09-26T14:08:55.257Z,99426.91
2022-09-26T14:14:19.231Z,99426.44
2022-09-26T14:19:39.407Z,99416.81
2022-09-26T14:24:45.427Z,99403.06
2022-09-26T14:29:53.060Z,99396.81
2022-09-26T14:34:55.228Z,99395.56
2022-09-26T14:40:00.538Z,99400.16
2022-09-26T14:45:09.031Z,99396.31
2022-09-26T14:50:20.621Z,99396.31
2022-09-26T14:55:23.090Z,99399.19
2022-09-26T15:00:41.990Z,99403.53
2022-09-26T15:05:45.175Z,99391.41
2022-09-26T15:10:48.464Z,99389.94
2022-09-26T15:15:50.824Z,99387.59
2022-09-26T15:21:04.167Z,99388.16
2022-09-26T15:26:07.109Z,99388.19
2022-09-26T15:31:39.371Z,99386.34
2022-09-26T15:36:42.621Z,99384.88
2022-09-26T15:42:04.337Z,99387.50
2022-09-26T15:47:30.122Z,99399.28
2022-09-26T15:52:35.727Z,99395.00
2022-09-26T15:57:38.236Z,99390.06
2022-09-26T16:02:40.746Z,99381.28
2022-09-26T16:07:48.392Z,99387.06
2022-09-26T16:12:50.565Z,99395.31
2022-09-26T16:17:54.767Z,99390.78
2022-09-26T16:23:04.081Z,99384.38
2022-09-26T16:28:10.491Z,99384.25
2022-09-26T16:33:28.218Z,99389.06
2022-09-26T16:38:34.428Z,99384.16
2022-09-26T16:43:38.558Z,99384.53
2022-09-26T16:48:51.405Z,99398.53
2022-09-26T16:54:08.973Z,99407.53
2022-09-26T16:59:26.822Z,99420.06
2022-09-26T17:04:31.289Z,99412.66
2022-09-26T17:09:35.216Z,99407.75
2022-09-26T17:14:40.630Z,99403.78
2022-09-26T17:19:44.852Z,99407.66
2022-09-26T17:24:51.317Z,99408.94
2022-09-26T17:29:55.843Z,99412.50
2022-09-26T17:35:00.017Z,99394.47
2022-09-26T17:40:04.062Z,99394.41
2022-09-26T17:45:07.081Z,99387.88
2022-09-26T17:50:16.917Z,99393.28
2022-09-26T17:55:21.691Z,99385.91
2022-09-26T18:00:24.135Z,99393.81
2022-09-26T18:05:31.227Z,99385.78
2022-09-26T18:10:35.011Z,99379.19
2022-09-26T18:15:37.635Z,99385.34
2022-09-26T18:20:40.563Z,99383.88
2022-09-26T18:25:47.199Z,99376.47
2022-09-26T18:30:57.859Z,99376.34
2022-09-26T18:36:00.855Z,99371.50
2022-09-26T18:41:07.048Z,99371.50
2022-09-26T18:46:17.828Z,99365.66
2022-09-26T18:51:20.642Z,99365.66
2022-09-26T18:56:41.847Z,99365.66
2022-09-26T19:01:44.437Z,99354.25
2022-09-26T19:06:49.858Z,99363.41
2022-09-26T19:11:52.274Z,99367.00
2022-09-26T19:16:55.824Z,99372.94
2022-09-26T19:22:01.006Z,99370.69
2022-09-26T19:27:11.356Z,99368.59
2022-09-26T19:32:20.127Z,99367.00
2022-09-26T19:37:22.542Z,99371.34
2022-09-26T19:42:26.393Z,99354.75
2022-09-26T19:47:29.710Z,99366.16
2022-09-26T19:52:32.173Z,99363.28
2022-09-26T19:57:34.740Z,99353.47
2022-09-26T20:02:37.212Z,99355.06
2022-09-26T20:07:39.603Z,99348.44
2022-09-26T20:12:43.174Z,99352.50
2022-09-26T20:17:46.442Z,99358.63
2022-09-26T20:22:51.120Z,99350.88
2022-09-26T20:27:53.660Z,99342.03
2022-09-26T20:32:55.965Z,99344.25
2022-09-26T20:38:05.149Z,99346.19
2022-09-26T20:43:11.861Z,99347.44
2022-09-26T20:48:23.523Z,99357.72
2022-09-26T20:53:26.370Z,99352.38
2022-09-26T20:58:28.753Z,99336.22
2022-09-26T21:03:31.755Z,99339.56
2022-09-26T21:08:34.082Z,99346.09
2022-09-26T21:13:36.432Z,99341.66
2022-09-26T21:18:39.031Z,99330.69
2022-09-26T21:23:43.116Z,99329.63
2022-09-26T21:28:45.615Z,99325.75
2022-09-26T21:33:48.182Z,99327.56
2022-09-26T21:38:51.896Z,99317.38
2022-09-26T21:44:06.173Z,99311.94
2022-09-26T21:49:08.619Z,99309.34
2022-09-26T21:54:21.805Z,99313.06
2022-09-26T21:59:24.874Z,99308.50
2022-09-26T22:04:27.406Z,99315.75
2022-09-26T22:09:30.476Z,99306.84
2022-09-26T22:14:33.160Z,99306.66
2022-09-26T22:19:36.076Z,99304.19
2022-09-26T22:24:38.511Z,99299.03
2022-09-26T22:29:42.025Z,99289.22
2022-09-26T22:34:44.383Z,99282.72
2022-09-26T22:39:46.759Z,99280.00
2022-09-26T22:44:49.153Z,99270.53
2022-09-26T22:49:52.102Z,99269.88
2022-09-26T22:54:54.633Z,99268.13
2022-09-26T22:59:57.300Z,99256.34
2022-09-26T23:04:59.697Z,99260.34
2022-09-26T23:10:02.213Z,99261.97
2022-09-26T23:15:05.441Z,99265.84
2022-09-26T23:20:08.343Z,99252.34
2022-09-26T23:25:10.882Z,99250.69
2022-09-26T23:30:13.490Z,99240.25
2022-09-26T23:35:16.117Z,99247.28
2022-09-26T23:40:18.529Z,99242.94
2022-09-26T23:45:20.888Z,99247.22
2022-09-26T23:50:23.318Z,99247.28
2022-09-26T23:55:25.705Z,99235.34
